sensor_id;sensor_type;location;lat;lon;timestamp;pressure;altitude;pressure_sealevel;temperature;humidity
43804;BME280;29430;52.924;-2.388;2022-08-06T00:02:20;100513.47;;;12.39;65.21
43804;BME280;29430;52.924;-2.388;2022-08-06T00:07:19;100507.81;;;12.27;66.00
43804;BME280;29430;52.924;-2.388;2022-08-06T00:12:16;100510.75;;;12.26;66.17
43804;BME280;29430;52.924;-2.388;2022-08-06T00:17:09;100511.16;;;12.23;65.97
43804;BME280;29430;52.924;-2.388;2022-08-06T00:22:04;100516.41;;;12.17;66.14
43804;BME280;29430;52.924;-2.388;2022-08-06T00:26:55;100516.38;;;12.11;66.50
43804;BME280;29430;52.924;-2.388;2022-08-06T00:31:56;100515.34;;;12.05;66.97
43804;BME280;29430;52.924;-2.388;2022-08-06T00:36:48;100513.88;;;11.96;66.76
43804;BME280;29430;52.924;-2.388;2022-08-06T00:41:40;100525.34;;;11.91;67.02
43804;BME280;29430;52.924;-2.388;2022-08-06T00:46:37;100509.41;;;11.81;67.46
43804;BME280;29430;52.924;-2.388;2022-08-06T00:51:29;100514.44;;;11.78;67.05
43804;BME280;29430;52.924;-2.388;2022-08-06T00:56:41;100511.09;;;11.76;67.15
43804;BME280;29430;52.924;-2.388;2022-08-06T01:01:35;100518.81;;;11.72;67.38
43804;BME280;29430;52.924;-2.388;2022-08-06T01:06:41;100521.50;;;11.65;67.66
43804;BME280;29430;52.924;-2.388;2022-08-06T01:11:48;100521.47;;;11.52;68.30
43804;BME280;29430;52.924;-2.388;2022-08-06T01:17:00;100511.66;;;11.51;68.28
43804;BME280;29430;52.924;-2.388;2022-08-06T01:22:17;100525.25;;;11.51;68.79
43804;BME280;29430;52.924;-2.388;2022-08-06T01:27:38;100525.19;;;11.44;68.72
43804;BME280;29430;52.924;-2.388;2022-08-06T01:33:14;100537.94;;;11.37;69.06
43804;BME280;29430;52.924;-2.388;2022-08-06T01:38:13;100533.31;;;11.31;69.56
43804;BME280;29430;52.924;-2.388;2022-08-06T01:43:11;100527.63;;;11.26;70.06
43804;BME280;29430;52.924;-2.388;2022-08-06T01:48:17;100528.91;;;11.23;70.05
43804;BME280;29430;52.924;-2.388;2022-08-06T01:53:13;100533.47;;;11.23;70.40
43804;BME280;29430;52.924;-2.388;2022-08-06T01:58:28;100541.41;;;11.18;70.43
43804;BME280;29430;52.924;-2.388;2022-08-06T02:03:54;100532.22;;;11.19;69.87
43804;BME280;29430;52.924;-2.388;2022-08-06T02:08:50;100518.84;;;11.17;70.92
43804;BME280;29430;52.924;-2.388;2022-08-06T02:13:45;100523.81;;;11.14;71.26
43804;BME280;29430;52.924;-2.388;2022-08-06T02:18:41;100528.44;;;11.13;72.08
43804;BME280;29430;52.924;-2.388;2022-08-06T02:23:35;100533.84;;;11.13;72.40
43804;BME280;29430;52.924;-2.388;2022-08-06T02:28:29;100528.63;;;11.11;72.60
43804;BME280;29430;52.924;-2.388;2022-08-06T02:33:23;100526.91;;;11.04;72.48
43804;BME280;29430;52.924;-2.388;2022-08-06T02:38:45;100523.38;;;11.03;72.51
43804;BME280;29430;52.924;-2.388;2022-08-06T02:43:49;100520.41;;;10.98;73.17
43804;BME280;29430;52.924;-2.388;2022-08-06T02:48:47;100530.44;;;10.98;72.88
43804;BME280;29430;52.924;-2.388;2022-08-06T02:54:13;100521.47;;;10.97;73.23
43804;BME280;29430;52.924;-2.388;2022-08-06T02:59:08;100529.81;;;10.96;72.99
43804;BME280;29430;52.924;-2.388;2022-08-06T03:04:02;100533.53;;;10.95;73.83
43804;BME280;29430;52.924;-2.388;2022-08-06T03:09:00;100531.03;;;10.93;74.12
43804;BME280;29430;52.924;-2.388;2022-08-06T03:13:53;100534.78;;;10.92;73.88
43804;BME280;29430;52.924;-2.388;2022-08-06T03:18:48;100533.94;;;10.91;73.72
43804;BME280;29430;52.924;-2.388;2022-08-06T03:24:02;100526.81;;;10.84;73.84
43804;BME280;29430;52.924;-2.388;2022-08-06T03:28:55;100529.91;;;10.81;74.03
43804;BME280;29430;52.924;-2.388;2022-08-06T03:33:48;100526.97;;;10.75;73.96
43804;BME280;29430;52.924;-2.388;2022-08-06T03:38:52;100538.03;;;10.74;74.80
43804;BME280;29430;52.924;-2.388;2022-08-06T03:43:46;100529.88;;;10.74;74.97
43804;BME280;29430;52.924;-2.388;2022-08-06T03:48:56;100540.06;;;10.72;75.18
43804;BME280;29430;52.924;-2.388;2022-08-06T03:53:51;100548.41;;;10.70;74.32
43804;BME280;29430;52.924;-2.388;2022-08-06T03:58:46;100540.66;;;10.67;75.70
43804;BME280;29430;52.924;-2.388;2022-08-06T04:03:39;100551.09;;;10.64;75.02
43804;BME280;29430;52.924;-2.388;2022-08-06T04:08:33;100547.47;;;10.56;75.36
43804;BME280;29430;52.924;-2.388;2022-08-06T04:13:27;100547.91;;;10.53;74.67
43804;BME280;29430;52.924;-2.388;2022-08-06T04:18:41;100546.22;;;10.52;74.99
43804;BME280;29430;52.924;-2.388;2022-08-06T04:23:40;100554.56;;;10.51;75.04
43804;BME280;29430;52.924;-2.388;2022-08-06T04:28:40;100558.88;;;10.45;74.97
43804;BME280;29430;52.924;-2.388;2022-08-06T04:33:36;100560.53;;;10.39;75.46
43804;BME280;29430;52.924;-2.388;2022-08-06T04:38:29;100559.59;;;10.32;75.38
43804;BME280;29430;52.924;-2.388;2022-08-06T04:43:21;100569.78;;;10.30;75.43
43804;BME280;29430;52.924;-2.388;2022-08-06T04:48:30;100561.00;;;10.28;75.16
43804;BME280;29430;52.924;-2.388;2022-08-06T04:53:39;100563.50;;;10.30;76.00
43804;BME280;29430;52.924;-2.388;2022-08-06T04:58:48;100563.31;;;10.31;75.42
43804;BME280;29430;52.924;-2.388;2022-08-06T05:03:40;100557.25;;;10.29;75.99
43804;BME280;29430;52.924;-2.388;2022-08-06T05:08:55;100565.00;;;10.32;76.02
43804;BME280;29430;52.924;-2.388;2022-08-06T05:13:52;100568.84;;;10.38;75.80
43804;BME280;29430;52.924;-2.388;2022-08-06T05:18:55;100562.66;;;10.44;76.29
43804;BME280;29430;52.924;-2.388;2022-08-06T05:24:09;100567.31;;;10.57;76.37
43804;BME280;29430;52.924;-2.388;2022-08-06T05:29:01;100572.69;;;10.79;76.91
43804;BME280;29430;52.924;-2.388;2022-08-06T05:33:53;100569.44;;;11.25;76.54
43804;BME280;29430;52.924;-2.388;2022-08-06T05:38:46;100577.63;;;11.87;75.86
43804;BME280;29430;52.924;-2.388;2022-08-06T05:43:49;100582.56;;;12.51;73.45
43804;BME280;29430;52.924;-2.388;2022-08-06T05:49:13;100578.91;;;13.11;71.72
43804;BME280;29430;52.924;-2.388;2022-08-06T05:54:32;100593.00;;;13.73;68.44
43804;BME280;29430;52.924;-2.388;2022-08-06T05:59:26;100597.13;;;14.21;66.57
43804;BME280;29430;52.924;-2.388;2022-08-06T06:04:40;100600.13;;;14.70;64.33
43804;BME280;29430;52.924;-2.388;2022-08-06T06:09:53;100590.41;;;15.18;63.37
43804;BME280;29430;52.924;-2.388;2022-08-06T06:14:54;100594.81;;;15.74;61.16
43804;BME280;29430;52.924;-2.388;2022-08-06T06:31:04;100604.53;;;17.32;56.42
43804;BME280;29430;52.924;-2.388;2022-08-06T06:36:07;100608.59;;;17.82;54.03
43804;BME280;29430;52.924;-2.388;2022-08-06T06:41:16;100623.91;;;17.66;53.32
43804;BME280;29430;52.924;-2.388;2022-08-06T06:51:41;100623.59;;;17.39;54.33
43804;BME280;29430;52.924;-2.388;2022-08-06T06:56:50;100627.78;;;17.82;54.78
43804;BME280;29430;52.924;-2.388;2022-08-06T07:01:48;100630.44;;;18.18;52.32
43804;BME280;29430;52.924;-2.388;2022-08-06T07:06:46;100632.69;;;18.21;52.50
43804;BME280;29430;52.924;-2.388;2022-08-06T07:11:50;100633.19;;;18.64;52.09
43804;BME280;29430;52.924;-2.388;2022-08-06T07:16:55;100639.94;;;19.07;52.56
43804;BME280;29430;52.924;-2.388;2022-08-06T07:21:49;100638.56;;;19.65;50.79
43804;BME280;29430;52.924;-2.388;2022-08-06T07:26:45;100641.13;;;20.16;49.24
43804;BME280;29430;52.924;-2.388;2022-08-06T07:31:41;100643.63;;;20.18;49.54
43804;BME280;29430;52.924;-2.388;2022-08-06T07:36:38;100651.53;;;20.64;48.34
43804;BME280;29430;52.924;-2.388;2022-08-06T07:41:31;100647.13;;;21.00;47.50
43804;BME280;29430;52.924;-2.388;2022-08-06T07:46:46;100648.09;;;21.64;46.72
43804;BME280;29430;52.924;-2.388;2022-08-06T07:51:43;100646.66;;;22.30;45.73
43804;BME280;29430;52.924;-2.388;2022-08-06T07:56:38;100648.66;;;23.01;43.76
43804;BME280;29430;52.924;-2.388;2022-08-06T08:01:52;100645.03;;;23.37;42.75
43804;BME280;29430;52.924;-2.388;2022-08-06T08:06:43;100644.84;;;23.99;42.89
43804;BME280;29430;52.924;-2.388;2022-08-06T08:11:40;100633.56;;;24.35;41.51
43804;BME280;29430;52.924;-2.388;2022-08-06T08:16:53;100646.25;;;24.80;40.22
43804;BME280;29430;52.924;-2.388;2022-08-06T08:21:44;100637.47;;;25.02;40.12
43804;BME280;29430;52.924;-2.388;2022-08-06T08:26:36;100647.34;;;25.43;40.30
43804;BME280;29430;52.924;-2.388;2022-08-06T08:31:48;100637.63;;;25.89;39.53
43804;BME280;29430;52.924;-2.388;2022-08-06T08:36:50;100644.44;;;26.40;38.01
43804;BME280;29430;52.924;-2.388;2022-08-06T08:41:51;100643.16;;;26.70;37.78
43804;BME280;29430;52.924;-2.388;2022-08-06T08:46:44;100647.41;;;26.82;37.87
43804;BME280;29430;52.924;-2.388;2022-08-06T08:51:48;100638.19;;;27.14;37.23
43804;BME280;29430;52.924;-2.388;2022-08-06T08:56:44;100630.94;;;27.32;36.68
43804;BME280;29430;52.924;-2.388;2022-08-06T09:01:56;100637.16;;;27.57;36.73
43804;BME280;29430;52.924;-2.388;2022-08-06T09:06:49;100637.53;;;27.92;35.56
43804;BME280;29430;52.924;-2.388;2022-08-06T09:11:44;100637.38;;;28.25;35.33
43804;BME280;29430;52.924;-2.388;2022-08-06T09:16:57;100629.31;;;28.23;34.65
43804;BME280;29430;52.924;-2.388;2022-08-06T09:21:50;100621.41;;;28.39;33.68
43804;BME280;29430;52.924;-2.388;2022-08-06T09:32:43;100636.38;;;27.93;34.12
43804;BME280;29430;52.924;-2.388;2022-08-06T09:37:59;100649.94;;;27.99;34.41
43804;BME280;29430;52.924;-2.388;2022-08-06T09:42:52;100649.41;;;27.69;33.75
43804;BME280;29430;52.924;-2.388;2022-08-06T09:47:45;100640.97;;;27.61;34.45
43804;BME280;29430;52.924;-2.388;2022-08-06T09:53:01;100647.97;;;27.86;34.91
43804;BME280;29430;52.924;-2.388;2022-08-06T09:58:06;100641.47;;;27.63;32.77
43804;BME280;29430;52.924;-2.388;2022-08-06T10:03:02;100649.72;;;27.40;34.01
43804;BME280;29430;52.924;-2.388;2022-08-06T10:08:15;100641.22;;;27.18;33.60
43804;BME280;29430;52.924;-2.388;2022-08-06T10:18:13;100644.72;;;26.57;35.36
43804;BME280;29430;52.924;-2.388;2022-08-06T10:23:41;100640.16;;;26.67;35.56
43804;BME280;29430;52.924;-2.388;2022-08-06T10:28:46;100646.16;;;26.55;34.57
43804;BME280;29430;52.924;-2.388;2022-08-06T10:38:50;100634.22;;;26.54;34.30
43804;BME280;29430;52.924;-2.388;2022-08-06T10:43:44;100641.91;;;27.09;34.84
43804;BME280;29430;52.924;-2.388;2022-08-06T10:48:39;100653.03;;;27.42;32.95
43804;BME280;29430;52.924;-2.388;2022-08-06T10:53:51;100637.13;;;27.84;32.28
43804;BME280;29430;52.924;-2.388;2022-08-06T10:59:00;100630.22;;;27.54;30.95
43804;BME280;29430;52.924;-2.388;2022-08-06T11:14:46;100628.28;;;27.68;33.26
43804;BME280;29430;52.924;-2.388;2022-08-06T11:24:51;100627.63;;;27.99;32.19
43804;BME280;29430;52.924;-2.388;2022-08-06T11:30:11;100607.81;;;28.01;30.54
43804;BME280;29430;52.924;-2.388;2022-08-06T11:35:37;100610.00;;;27.48;31.94
43804;BME280;29430;52.924;-2.388;2022-08-06T11:40:55;100613.19;;;27.56;30.90
43804;BME280;29430;52.924;-2.388;2022-08-06T12:02:06;100604.28;;;27.26;30.68
43804;BME280;29430;52.924;-2.388;2022-08-06T12:17:20;100598.41;;;26.48;32.20
43804;BME280;29430;52.924;-2.388;2022-08-06T12:22:13;100583.66;;;26.66;32.43
43804;BME280;29430;52.924;-2.388;2022-08-06T12:27:10;100590.34;;;26.98;33.70
43804;BME280;29430;52.924;-2.388;2022-08-06T12:32:32;100575.31;;;27.27;32.69
43804;BME280;29430;52.924;-2.388;2022-08-06T12:37:45;100567.38;;;27.34;31.66
43804;BME280;29430;52.924;-2.388;2022-08-06T12:42:41;100564.78;;;27.24;32.83
43804;BME280;29430;52.924;-2.388;2022-08-06T12:53:10;100549.06;;;27.00;31.66
43804;BME280;29430;52.924;-2.388;2022-08-06T12:58:03;100550.81;;;26.82;33.79
43804;BME280;29430;52.924;-2.388;2022-08-06T13:03:05;100565.28;;;26.65;34.39
43804;BME280;29430;52.924;-2.388;2022-08-06T13:07:58;100563.59;;;26.50;32.23
43804;BME280;29430;52.924;-2.388;2022-08-06T13:13:02;100554.53;;;26.25;32.17
43804;BME280;29430;52.924;-2.388;2022-08-06T13:18:16;100556.91;;;26.18;34.21
43804;BME280;29430;52.924;-2.388;2022-08-06T13:23:33;100550.88;;;26.11;33.05
43804;BME280;29430;52.924;-2.388;2022-08-06T13:28:27;100539.09;;;26.00;35.54
43804;BME280;29430;52.924;-2.388;2022-08-06T13:33:24;100549.41;;;25.95;34.12
43804;BME280;29430;52.924;-2.388;2022-08-06T13:38:32;100553.47;;;25.64;34.00
43804;BME280;29430;52.924;-2.388;2022-08-06T13:43:42;100545.91;;;25.22;36.20
43804;BME280;29430;52.924;-2.388;2022-08-06T13:48:46;100537.59;;;25.22;37.46
43804;BME280;29430;52.924;-2.388;2022-08-06T13:53:39;100542.56;;;25.25;37.59
43804;BME280;29430;52.924;-2.388;2022-08-06T13:58:39;100544.88;;;24.88;35.56
43804;BME280;29430;52.924;-2.388;2022-08-06T14:03:35;100549.66;;;24.53;36.75
43804;BME280;29430;52.924;-2.388;2022-08-06T14:08:28;100536.81;;;24.28;36.70
43804;BME280;29430;52.924;-2.388;2022-08-06T14:13:26;100532.81;;;24.05;37.82
43804;BME280;29430;52.924;-2.388;2022-08-06T14:18:20;100538.66;;;24.03;39.88
43804;BME280;29430;52.924;-2.388;2022-08-06T14:23:18;100532.13;;;24.23;39.50
43804;BME280;29430;52.924;-2.388;2022-08-06T14:28:13;100540.38;;;23.94;39.58
43804;BME280;29430;52.924;-2.388;2022-08-06T14:33:07;100542.81;;;24.06;39.92
43804;BME280;29430;52.924;-2.388;2022-08-06T14:38:18;100529.91;;;24.25;39.75
43804;BME280;29430;52.924;-2.388;2022-08-06T14:43:10;100539.84;;;24.31;38.96
43804;BME280;29430;52.924;-2.388;2022-08-06T14:48:23;100534.63;;;24.25;39.70
43804;BME280;29430;52.924;-2.388;2022-08-06T14:53:21;100536.88;;;24.23;39.55
43804;BME280;29430;52.924;-2.388;2022-08-06T14:58:21;100537.09;;;24.31;40.61
43804;BME280;29430;52.924;-2.388;2022-08-06T15:03:21;100529.44;;;24.47;39.55
43804;BME280;29430;52.924;-2.388;2022-08-06T15:08:18;100523.81;;;24.23;39.97
43804;BME280;29430;52.924;-2.388;2022-08-06T15:13:09;100515.72;;;23.98;40.64
43804;BME280;29430;52.924;-2.388;2022-08-06T15:18:01;100519.94;;;23.80;40.81
43804;BME280;29430;52.924;-2.388;2022-08-06T15:23:11;100518.75;;;23.46;41.27
43804;BME280;29430;52.924;-2.388;2022-08-06T15:28:03;100504.31;;;23.49;41.03
43804;BME280;29430;52.924;-2.388;2022-08-06T15:32:55;100504.97;;;23.31;41.18
43804;BME280;29430;52.924;-2.388;2022-08-06T15:37:49;100506.97;;;23.04;41.51
43804;BME280;29430;52.924;-2.388;2022-08-06T15:42:48;100502.34;;;22.89;41.61
43804;BME280;29430;52.924;-2.388;2022-08-06T15:47:40;100501.25;;;22.80;41.63
43804;BME280;29430;52.924;-2.388;2022-08-06T15:52:36;100496.28;;;22.77;42.35
43804;BME280;29430;52.924;-2.388;2022-08-06T15:57:34;100491.84;;;22.81;42.65
43804;BME280;29430;52.924;-2.388;2022-08-06T16:02:46;100492.91;;;22.91;41.39
43804;BME280;29430;52.924;-2.388;2022-08-06T16:07:41;100489.06;;;22.86;42.37
43804;BME280;29430;52.924;-2.388;2022-08-06T16:12:47;100479.94;;;22.81;41.08
43804;BME280;29430;52.924;-2.388;2022-08-06T16:17:42;100480.22;;;22.79;41.29
43804;BME280;29430;52.924;-2.388;2022-08-06T16:22:54;100481.94;;;22.60;40.55
43804;BME280;29430;52.924;-2.388;2022-08-06T16:27:46;100483.03;;;22.53;41.28
43804;BME280;29430;52.924;-2.388;2022-08-06T16:32:39;100469.78;;;22.45;41.18
43804;BME280;29430;52.924;-2.388;2022-08-06T16:37:35;100469.53;;;22.42;40.45
43804;BME280;29430;52.924;-2.388;2022-08-06T16:42:30;100474.50;;;22.29;41.02
43804;BME280;29430;52.924;-2.388;2022-08-06T16:47:22;100471.16;;;22.27;41.66
43804;BME280;29430;52.924;-2.388;2022-08-06T16:52:14;100472.56;;;22.25;40.79
43804;BME280;29430;52.924;-2.388;2022-08-06T16:57:25;100461.50;;;22.09;41.52
43804;BME280;29430;52.924;-2.388;2022-08-06T17:02:27;100455.41;;;22.02;42.25
43804;BME280;29430;52.924;-2.388;2022-08-06T17:07:33;100457.34;;;21.91;42.19
43804;BME280;29430;52.924;-2.388;2022-08-06T17:12:46;100456.25;;;21.82;43.62
43804;BME280;29430;52.924;-2.388;2022-08-06T17:17:48;100461.47;;;21.73;43.50
43804;BME280;29430;52.924;-2.388;2022-08-06T17:22:40;100455.94;;;21.68;43.72
43804;BME280;29430;52.924;-2.388;2022-08-06T17:27:38;100458.94;;;21.56;43.92
43804;BME280;29430;52.924;-2.388;2022-08-06T17:32:47;100466.41;;;21.51;44.35
43804;BME280;29430;52.924;-2.388;2022-08-06T17:37:47;100455.31;;;21.35;44.27
43804;BME280;29430;52.924;-2.388;2022-08-06T17:42:41;100453.34;;;21.31;44.59
43804;BME280;29430;52.924;-2.388;2022-08-06T17:47:37;100459.66;;;21.21;44.88
43804;BME280;29430;52.924;-2.388;2022-08-06T17:52:42;100462.94;;;21.18;44.50
43804;BME280;29430;52.924;-2.388;2022-08-06T17:57:38;100463.50;;;21.15;44.55
43804;BME280;29430;52.924;-2.388;2022-08-06T18:02:50;100463.47;;;21.04;44.19
43804;BME280;29430;52.924;-2.388;2022-08-06T18:07:43;100460.38;;;20.96;44.27
43804;BME280;29430;52.924;-2.388;2022-08-06T18:12:55;100464.75;;;20.86;44.79
43804;BME280;29430;52.924;-2.388;2022-08-06T18:17:51;100451.75;;;20.77;44.79
43804;BME280;29430;52.924;-2.388;2022-08-06T18:22:59;100458.31;;;20.65;45.38
43804;BME280;29430;52.924;-2.388;2022-08-06T18:27:53;100452.69;;;20.50;45.17
43804;BME280;29430;52.924;-2.388;2022-08-06T18:32:47;100455.59;;;20.33;45.38
43804;BME280;29430;52.924;-2.388;2022-08-06T18:37:43;100457.38;;;20.17;45.67
43804;BME280;29430;52.924;-2.388;2022-08-06T18:42:54;100463.88;;;20.00;46.43
43804;BME280;29430;52.924;-2.388;2022-08-06T18:47:47;100470.44;;;19.94;46.65
43804;BME280;29430;52.924;-2.388;2022-08-06T18:52:43;100474.38;;;19.76;47.23
43804;BME280;29430;52.924;-2.388;2022-08-06T18:57:35;100476.22;;;19.71;47.83
43804;BME280;29430;52.924;-2.388;2022-08-06T19:02:47;100477.78;;;19.61;48.27
43804;BME280;29430;52.924;-2.388;2022-08-06T19:07:39;100477.53;;;19.63;48.89
43804;BME280;29430;52.924;-2.388;2022-08-06T19:12:40;100473.38;;;19.60;48.64
43804;BME280;29430;52.924;-2.388;2022-08-06T19:17:33;100488.69;;;19.51;49.06
43804;BME280;29430;52.924;-2.388;2022-08-06T19:22:45;100485.78;;;19.36;49.64
43804;BME280;29430;52.924;-2.388;2022-08-06T19:27:44;100486.22;;;19.27;49.79
43804;BME280;29430;52.924;-2.388;2022-08-06T19:32:55;100488.34;;;19.20;50.13
43804;BME280;29430;52.924;-2.388;2022-08-06T19:37:48;100489.72;;;19.01;50.55
43804;BME280;29430;52.924;-2.388;2022-08-06T19:42:51;100497.31;;;18.93;50.86
43804;BME280;29430;52.924;-2.388;2022-08-06T19:48:02;100506.84;;;18.86;51.33
43804;BME280;29430;52.924;-2.388;2022-08-06T19:52:55;100505.00;;;18.74;51.53
43804;BME280;29430;52.924;-2.388;2022-08-06T19:57:47;100505.59;;;18.59;52.10
43804;BME280;29430;52.924;-2.388;2022-08-06T20:02:39;100505.31;;;18.39;52.87
43804;BME280;29430;52.924;-2.388;2022-08-06T20:07:43;100516.78;;;18.19;53.36
43804;BME280;29430;52.924;-2.388;2022-08-06T20:12:55;100503.72;;;18.09;53.65
43804;BME280;29430;52.924;-2.388;2022-08-06T20:17:48;100510.59;;;18.12;53.33
43804;BME280;29430;52.924;-2.388;2022-08-06T20:22:41;100509.72;;;18.06;53.29
43804;BME280;29430;52.924;-2.388;2022-08-06T20:27:35;100519.50;;;18.02;53.69
43804;BME280;29430;52.924;-2.388;2022-08-06T20:32:46;100520.84;;;17.99;54.04
43804;BME280;29430;52.924;-2.388;2022-08-06T20:37:44;100522.66;;;17.94;53.86
43804;BME280;29430;52.924;-2.388;2022-08-06T20:42:45;100519.81;;;17.88;54.15
43804;BME280;29430;52.924;-2.388;2022-08-06T20:47:39;100526.50;;;17.81;53.95
43804;BME280;29430;52.924;-2.388;2022-08-06T20:52:47;100523.91;;;17.74;54.30
43804;BME280;29430;52.924;-2.388;2022-08-06T20:57:41;100524.06;;;17.67;54.46
43804;BME280;29430;52.924;-2.388;2022-08-06T21:02:38;100518.22;;;17.64;54.47
43804;BME280;29430;52.924;-2.388;2022-08-06T21:07:33;100517.56;;;17.57;54.92
43804;BME280;29430;52.924;-2.388;2022-08-06T21:12:28;100519.84;;;17.48;54.89
43804;BME280;29430;52.924;-2.388;2022-08-06T21:17:20;100521.53;;;17.37;55.42
43804;BME280;29430;52.924;-2.388;2022-08-06T21:22:25;100522.03;;;17.34;55.74
43804;BME280;29430;52.924;-2.388;2022-08-06T21:27:20;100524.06;;;17.27;55.76
43804;BME280;29430;52.924;-2.388;2022-08-06T21:32:12;100528.03;;;17.19;56.26
43804;BME280;29430;52.924;-2.388;2022-08-06T21:37:22;100521.25;;;17.10;56.39
43804;BME280;29430;52.924;-2.388;2022-08-06T21:42:36;100516.38;;;17.00;56.95
43804;BME280;29430;52.924;-2.388;2022-08-06T21:47:28;100510.44;;;16.91;57.20
43804;BME280;29430;52.924;-2.388;2022-08-06T21:52:37;100515.44;;;16.82;57.48
43804;BME280;29430;52.924;-2.388;2022-08-06T21:57:29;100513.03;;;16.74;57.32
43804;BME280;29430;52.924;-2.388;2022-08-06T22:02:39;100509.22;;;16.63;57.58
43804;BME280;29430;52.924;-2.388;2022-08-06T22:07:32;100499.22;;;16.57;58.03
43804;BME280;29430;52.924;-2.388;2022-08-06T22:12:44;100506.75;;;16.50;58.40
43804;BME280;29430;52.924;-2.388;2022-08-06T22:17:57;100498.50;;;16.38;58.75
43804;BME280;29430;52.924;-2.388;2022-08-06T22:22:54;100503.03;;;16.33;58.85
43804;BME280;29430;52.924;-2.388;2022-08-06T22:27:47;100499.81;;;16.24;59.31
43804;BME280;29430;52.924;-2.388;2022-08-06T22:32:44;100498.50;;;16.15;59.30
43804;BME280;29430;52.924;-2.388;2022-08-06T22:37:36;100494.44;;;16.05;60.44
43804;BME280;29430;52.924;-2.388;2022-08-06T22:42:50;100481.66;;;15.87;60.63
43804;BME280;29430;52.924;-2.388;2022-08-06T22:47:49;100498.78;;;15.83;60.98
43804;BME280;29430;52.924;-2.388;2022-08-06T22:52:46;100491.09;;;15.73;61.36
43804;BME280;29430;52.924;-2.388;2022-08-06T22:57:58;100486.81;;;15.65;61.73
43804;BME280;29430;52.924;-2.388;2022-08-06T23:03:10;100482.50;;;15.57;61.74
43804;BME280;29430;52.924;-2.388;2022-08-06T23:08:04;100480.91;;;15.50;62.14
43804;BME280;29430;52.924;-2.388;2022-08-06T23:12:56;100473.63;;;15.44;62.35
43804;BME280;29430;52.924;-2.388;2022-08-06T23:17:48;100474.56;;;15.37;62.66
43804;BME280;29430;52.924;-2.388;2022-08-06T23:22:47;100478.81;;;15.33;62.82
43804;BME280;29430;52.924;-2.388;2022-08-06T23:27:40;100471.94;;;15.31;63.09
43804;BME280;29430;52.924;-2.388;2022-08-06T23:32:40;100470.47;;;15.28;63.07
43804;BME280;29430;52.924;-2.388;2022-08-06T23:37:37;100480.19;;;15.24;63.23
43804;BME280;29430;52.924;-2.388;2022-08-06T23:42:30;100475.19;;;15.21;63.15
43804;BME280;29430;52.924;-2.388;2022-08-06T23:47:22;100476.28;;;15.20;63.23
43804;BME280;29430;52.924;-2.388;2022-08-06T23:52:34;100466.03;;;15.15;63.43
43804;BME280;29430;52.924;-2.388;2022-08-06T23:57:32;100465.03;;;15.10;64.14
